Aristoklis — V7WV9 — position and weather

sailwx.info

Track history (hours):
 
Tides and Currents Weather Stations Pressure Air Temp Water Temp Dewpoint Dewpoint Depression Visibility Wind Speed Wind Dir Waves Ship Positions

Aristoklis

Last reported at 2018-Jul-18 22:00 UTC. Time now 2018-Jul-18 22:15 UTC.
Position N 37°21' W 123°19'.

Length 250 m; draft 9.6 m.

Type: Tanker. MMSI: 538007127.

Date/timePositionNaut miles runAvg speedWind from/ knotsBaromVisibWave heightAir tempDewpointWater temp
2018-Jul-18 22:00N 37°21' W 123°19'1 1.4
2018-Jul-18 21:31N 37°21' W 123°19'1 1.2
2018-Jul-18 21:01N 37°22' W 123°18'1 1.4
2018-Jul-18 20:31N 37°22' W 123°18'1 2.4
2018-Jul-18 19:58N 37°24' W 123°18'2 4.4
2018-Jul-18 19:30N 37°24' W 123°20'510.8
2018-Jul-18 19:00N 37°22' W 123°27'5 9.5
2018-Jul-18 18:30N 37°20' W 123°32'511.1
2018-Jul-18 18:01N 37°18' W 123°39'611.5
2018-Jul-18 17:31N 37°16' W 123°45'3 6.8
2018-Jul-18 17:01N 37°15' W 123°50'1 2.0
2018-Jul-18 16:30N 37°16' W 123°48'1 2.0
2018-Jul-18 16:00N 37°17' W 123°48'1 1.9
2018-Jul-18 15:30N 37°17' W 123°47'1 1.9
2018-Jul-18 15:01N 37°18' W 123°47'1 2.0
2018-Jul-18 14:30N 37°19' W 123°46'2 1.9
2018-Jul-18 13:30N 37°20' W 123°44'1 2.1
2018-Jul-18 13:00N 37°21' W 123°43'1 1.9
2018-Jul-18 12:30N 37°22' W 123°43'1 1.8
2018-Jul-18 12:00N 37°22' W 123°42'1 2.0
2018-Jul-18 11:31N 37°23' W 123°41'2 2.0
2018-Jul-18 10:31N 37°24' W 123°39'1 1.9
2018-Jul-18 10:00N 37°25' W 123°38'1 1.7
2018-Jul-18 09:30N 37°26' W 123°38'1 1.9
2018-Jul-18 09:00N 37°27' W 123°37'1 1.8
2018-Jul-18 08:31N 37°28' W 123°37'1 1.9
2018-Jul-18 08:00N 37°29' W 123°36'1 1.6
2018-Jul-18 07:30N 37°29' W 123°36'1 1.1
2018-Jul-18 07:01N 37°30' W 123°36'3 6.4
2018-Jul-18 06:30N 37°30' W 123°32'5 9.6
2018-Jul-18 06:00N 37°26' W 123°27'611.9
2018-Jul-18 05:30N 37°21' W 123°24'611.9
2018-Jul-18 05:00N 37°15' W 123°21'612.1
2018-Jul-18 04:31N 37°10' W 123°18'612.5
2018-Jul-18 04:00N 37°04' W 123°15'612.1
2018-Jul-18 03:31N 36°58' W 123°13'612.1
2018-Jul-18 03:00N 36°52' W 123°12'612.0
2018-Jul-18 02:30N 36°46' W 123°12'612.1
2018-Jul-18 02:01N 36°40' W 123°11'612.1
2018-Jul-18 01:31N 36°34' W 123°11'611.9
2018-Jul-18 01:01N 36°28' W 123°10'611.9
2018-Jul-18 00:30N 36°22' W 123°10'612.1
2018-Jul-18 00:00N 36°16' W 123°09'612.1
2018-Jul-17 23:30N 36°10' W 123°09'612.0
2018-Jul-17 23:01N 36°04' W 123°08'612.1
2018-Jul-17 22:30N 35°58' W 123°07'611.8
2018-Jul-17 22:01N 35°52' W 123°07'611.6
2018-Jul-17 21:30N 35°47' W 123°06'611.7
2018-Jul-17 21:00N 35°41' W 123°06'611.8
2018-Jul-17 20:30N 35°35' W 123°05'611.3
2018-Jul-17 20:01N 35°30' W 123°03'612.2
2018-Jul-17 19:31N 35°25' W 122°58'612.3
2018-Jul-17 19:01N 35°21' W 122°52'612.3
2018-Jul-17 18:30N 35°17' W 122°47'612.5
2018-Jul-17 18:00N 35°13' W 122°41'612.7
2018-Jul-17 17:31N 35°09' W 122°35'612.8
2018-Jul-17 17:01N 35°04' W 122°30'713.0
2018-Jul-17 16:30N 34°60' W 122°24'713.2
2018-Jul-17 16:00N 34°55' W 122°18'713.4
2018-Jul-17 15:30N 34°51' W 122°12'713.4
2018-Jul-17 15:00N 34°46' W 122°06'713.7
2018-Jul-17 14:30N 34°42' W 121°60'713.4
2018-Jul-17 14:01N 34°37' W 121°54'713.4
2018-Jul-17 13:30N 34°32' W 121°48'713.2
2018-Jul-17 13:01N 34°28' W 121°42'713.6
2018-Jul-17 12:30N 34°23' W 121°36'713.7
2018-Jul-17 12:00N 34°17' W 121°31'713.8
2018-Jul-17 11:31N 34°12' W 121°27'713.7
2018-Jul-17 11:00N 34°06' W 121°22'713.7
2018-Jul-17 10:31N 34°01' W 121°17'713.5
2018-Jul-17 10:00N 33°55' W 121°12'713.3
2018-Jul-17 09:30N 33°50' W 121°08'713.8
2018-Jul-17 09:00N 33°44' W 121°03'713.9
2018-Jul-17 08:30N 33°39' W 120°58'713.8
2018-Jul-17 08:00N 33°33' W 120°53'713.8
2018-Jul-17 07:30N 33°27' W 120°48'713.7
2018-Jul-17 07:00N 33°22' W 120°43'714.0
2018-Jul-17 06:30N 33°16' W 120°38'714.1
2018-Jul-17 06:00N 33°10' W 120°34'713.8
2018-Jul-17 05:30N 33°05' W 120°29'713.5
2018-Jul-17 05:00N 32°59' W 120°24'713.1
2018-Jul-17 04:30N 32°54' W 120°20'713.0
2018-Jul-17 03:59N 32°49' W 120°15'1313.1
2018-Jul-17 02:59N 32°38' W 120°06'613.2
2018-Jul-17 02:30N 32°33' W 120°01'713.1
2018-Jul-17 02:00N 32°27' W 119°57'613.0
2018-Jul-17 01:30N 32°22' W 119°52'612.7
2018-Jul-17 01:00N 32°17' W 119°48'612.5
2018-Jul-17 00:30N 32°12' W 119°44'1312.7
2018-Jul-16 23:30N 32°02' W 119°35'713.0
2018-Jul-16 23:00N 31°56' W 119°30'713.2
2018-Jul-16 22:30N 31°51' W 119°26'612.9
2018-Jul-16 22:00N 31°46' W 119°22'613.0
2018-Jul-16 21:30N 31°40' W 119°18'612.3
2018-Jul-16 21:00N 31°34' W 119°15'5 9.5
2018-Jul-16 20:30N 31°31' W 119°11'1 1.4
2018-Jul-16 20:00N 31°32' W 119°10'1 2.5
2018-Jul-16 19:30N 31°33' W 119°11'2 3.8
2018-Jul-16 19:00N 31°34' W 119°12'2 3.6
2018-Jul-16 18:30N 31°36' W 119°13'1 2.9
2018-Jul-16 18:00N 31°37' W 119°14'1 2.4
2018-Jul-16 17:30N 31°38' W 119°15'1 2.1
2018-Jul-16 17:00N 31°38' W 119°16'1 1.7
2018-Jul-16 16:30N 31°39' W 119°17'1 1.7
2018-Jul-16 16:00N 31°39' W 119°18'1 1.6
2018-Jul-16 15:23N 31°40' W 119°19'1 1.6
2018-Jul-16 14:58N 31°40' W 119°20'1 1.6
2018-Jul-16 14:30N 31°41' W 119°20'1 1.4
2018-Jul-16 13:57N 31°41' W 119°21'1 1.2
2018-Jul-16 13:30N 31°41' W 119°22'1 1.2
2018-Jul-16 13:00N 31°41' W 119°22'1 1.0
2018-Jul-16 12:30N 31°42' W 119°23'1 1.2
2018-Jul-16 12:00N 31°42' W 119°23'1 1.2
2018-Jul-16 11:30N 31°42' W 119°24'1 1.1
2018-Jul-16 11:00N 31°43' W 119°24'1 1.1
2018-Jul-16 10:31N 31°43' W 119°25'1 1.4
2018-Jul-16 10:01N 31°44' W 119°25'1 1.2
2018-Jul-16 09:30N 31°44' W 119°26'1 1.3
2018-Jul-16 09:00N 31°45' W 119°26'1 1.2
2018-Jul-16 08:31N 31°45' W 119°27'1 1.1
2018-Jul-16 08:00N 31°46' W 119°27'1 1.1
2018-Jul-16 07:30N 31°46' W 119°27'1 1.2
2018-Jul-16 07:00N 31°46' W 119°28'1 1.1
2018-Jul-16 06:30N 31°47' W 119°28'0 1.0
2018-Jul-16 06:00N 31°47' W 119°28'1 1.6
2018-Jul-16 05:30N 31°48' W 119°29'1 2.0
2018-Jul-16 05:01N 31°49' W 119°30'1 2.2
2018-Jul-16 04:30N 31°49' W 119°31'1 2.6
2018-Jul-16 04:00N 31°50' W 119°32'1 2.6
2018-Jul-16 03:30N 31°51' W 119°33'1 2.7
2018-Jul-16 03:00N 31°53' W 119°34'1 2.6
2018-Jul-16 02:30N 31°54' W 119°35'2 3.0
2018-Jul-16 02:00N 31°55' W 119°35'2 4.8
2018-Jul-16 01:30N 31°57' W 119°37'3 6.2
2018-Jul-16 01:00N 31°59' W 119°40'3 5.7
2018-Jul-16 00:30N 32°01' W 119°42'3 5.8
2018-Jul-15 23:58N 32°04' W 119°44'2 4.6
2018-Jul-15 23:30N 32°05' W 119°46'2 3.4
2018-Jul-15 23:00N 32°06' W 119°47'3 5.1
2018-Jul-15 22:30N 32°08' W 119°49'3 5.5
2018-Jul-15 22:01N 32°10' W 119°52'3 5.0
2018-Jul-15 21:30N 32°11' W 119°54'4 7.0
2018-Jul-15 21:00N 32°12' W 119°58'2 3.8
2018-Jul-15 20:21N 32°14' W 120°00'1 2.5
2018-Jul-15 19:57N 32°15' W 120°00'2 2.5
2018-Jul-15 19:08N 32°17' W 120°01'0 2.5
2018-Jul-15 19:00N 32°17' W 120°01'2 2.5
2018-Jul-15 18:24N 32°19' W 120°01'1 2.5
2018-Jul-15 17:59N 32°20' W 120°01'1 2.5
2018-Jul-15 17:28N 32°21' W 120°01'1 2.9
2018-Jul-15 17:00N 32°22' W 120°00'2 4.3
2018-Jul-15 16:30N 32°21' W 119°58'4 7.1
2018-Jul-15 16:00N 32°18' W 119°56'4 7.2
2018-Jul-15 15:30N 32°15' W 119°55'4 7.1
2018-Jul-15 15:00N 32°11' W 119°53'4 7.0
2018-Jul-15 14:30N 32°08' W 119°52'3 6.8
2018-Jul-15 14:00N 32°05' W 119°50'3 6.8
2018-Jul-15 13:30N 32°02' W 119°49'3 6.8
2018-Jul-15 13:01N 31°59' W 119°47'3 6.8
2018-Jul-15 12:30N 31°56' W 119°45'4 7.0
2018-Jul-15 12:00N 31°52' W 119°44'4 7.0
2018-Jul-15 11:30N 31°49' W 119°42'4 7.2
2018-Jul-15 11:00N 31°46' W 119°40'4 7.1
2018-Jul-15 10:31N 31°43' W 119°38'4 7.4
2018-Jul-15 10:01N 31°39' W 119°36'4 7.5
2018-Jul-15 09:31N 31°36' W 119°35'4 7.6
2018-Jul-15 09:01N 31°33' W 119°33'4 7.4
2018-Jul-15 08:30N 31°29' W 119°31'4 7.3
2018-Jul-15 08:00N 31°26' W 119°29'4 7.3
2018-Jul-15 07:30N 31°23' W 119°27'4 7.2
2018-Jul-15 07:00N 31°19' W 119°26'3 7.0
2018-Jul-15 06:30N 31°16' W 119°24'4 7.2
2018-Jul-15 06:00N 31°13' W 119°22'4 7.3
2018-Jul-15 05:30N 31°09' W 119°20'4 7.2
2018-Jul-15 05:00N 31°06' W 119°19'2 3.7
2018-Jul-15 04:30N 31°05' W 119°17'2 2.6
2018-Jul-15 03:40N 31°07' W 119°18'0 2.4
2018-Jul-15 03:29N 31°07' W 119°18'5 2.3
2018-Jul-15 01:13N 31°12' W 119°19'0 2.1
2018-Jul-15 00:59N 31°13' W 119°19'1 2.0
2018-Jul-15 00:26N 31°14' W 119°19'1 2.0
2018-Jul-15 00:00N 31°15' W 119°20'1 2.0
2018-Jul-14 23:30N 31°16' W 119°20'1 2.0
2018-Jul-14 23:00N 31°17' W 119°20'2 2.1
2018-Jul-14 22:07N 31°19' W 119°20'0 2.1
2018-Jul-14 22:00N 31°19' W 119°20'1 2.1
2018-Jul-14 21:30N 31°20' W 119°20'1 2.2
2018-Jul-14 21:00N 31°21' W 119°20'1 2.0
2018-Jul-14 20:30N 31°22' W 119°20'1 1.9
2018-Jul-14 20:00N 31°23' W 119°20'1 2.0
2018-Jul-14 19:27N 31°24' W 119°20'1 1.8
2018-Jul-14 18:47N 31°25' W 119°20'0 1.8
2018-Jul-14 18:30N 31°26' W 119°20'1 2.0
2018-Jul-14 17:53N 31°27' W 119°20'1 2.1
2018-Jul-14 17:30N 31°28' W 119°20'1 2.0
2018-Jul-14 17:00N 31°29' W 119°20'1 2.1
2018-Jul-14 16:30N 31°30' W 119°20'1 2.2
2018-Jul-14 16:01N 31°31' W 119°20'1 2.3
2018-Jul-14 15:30N 31°32' W 119°21'1 2.4
2018-Jul-14 15:00N 31°33' W 119°21'2 2.3
2018-Jul-14 14:06N 31°35' W 119°21'1 2.1
2018-Jul-14 13:29N 31°37' W 119°21'1 1.9
2018-Jul-14 13:00N 31°37' W 119°22'1 1.8
2018-Jul-14 12:30N 31°38' W 119°22'1 1.9
2018-Jul-14 11:58N 31°39' W 119°22'1 1.9
2018-Jul-14 11:28N 31°40' W 119°22'1 1.9
2018-Jul-14 10:49N 31°42' W 119°22'1 1.9
2018-Jul-14 10:19N 31°42' W 119°22'1 1.9
2018-Jul-14 09:59N 31°43' W 119°22'1 2.0
2018-Jul-14 09:30N 31°44' W 119°22'3 2.0
2018-Jul-14 08:14N 31°47' W 119°21'4 2.0
2018-Jul-14 06:20N 31°50' W 119°20'1 2.0
2018-Jul-14 05:57N 31°51' W 119°20'1 2.1
2018-Jul-14 05:24N 31°52' W 119°20'1 2.0
2018-Jul-14 05:00N 31°53' W 119°19'1 1.8
2018-Jul-14 04:28N 31°54' W 119°19'1 1.9
2018-Jul-14 04:00N 31°55' W 119°19'1 1.9
2018-Jul-14 03:30N 31°56' W 119°19'1 1.8
2018-Jul-14 02:52N 31°57' W 119°19'1 1.8
2018-Jul-14 02:28N 31°58' W 119°19'1 1.8
2018-Jul-14 02:00N 31°58' W 119°19'1 1.8
2018-Jul-14 01:20N 31°60' W 119°19'1 1.8
2018-Jul-14 00:35N 32°01' W 119°19'0 1.9
2018-Jul-14 00:30N 32°01' W 119°19'2 1.6
2018-Jul-13 23:19N 32°03' W 119°19'1 1.3
2018-Jul-13 22:36N 32°04' W 119°20'0 1.2
2018-Jul-13 22:29N 32°04' W 119°20'1 1.1
2018-Jul-13 21:59N 32°04' W 119°20'0 1.0
2018-Jul-13 21:30N 32°05' W 119°20'1 1.1
2018-Jul-13 20:57N 32°05' W 119°21'0 1.1
2018-Jul-13 20:30N 32°06' W 119°21'1 0.9
2018-Jul-13 19:54N 32°06' W 119°21'0 0.8
2018-Jul-13 19:31N 32°07' W 119°21'0 0.8
2018-Jul-13 19:00N 32°07' W 119°21'0 0.6
2018-Jul-13 18:16N 32°07' W 119°22'0 0.5
2018-Jul-13 18:00N 32°07' W 119°22'0 0.3
2018-Jul-13 17:30N 32°08' W 119°22'0 0.4
2018-Jul-13 17:00N 32°08' W 119°22'0 0.5
2018-Jul-13 16:07N 32°08' W 119°22'0 0.6
2018-Jul-13 15:57N 32°08' W 119°22'0 0.7
2018-Jul-13 15:15N 32°09' W 119°22'0 0.8
2018-Jul-13 15:00N 32°09' W 119°22'0 0.9
2018-Jul-13 14:30N 32°09' W 119°22'7 7.1
2018-Jul-13 13:30N 32°03' W 119°27'5 9.0
2018-Jul-13 12:59N 32°00' W 119°30'5 8.9
2018-Jul-13 12:27N 31°57' W 119°34'4 8.8
2018-Jul-13 11:57N 31°53' W 119°38'4 8.3
2018-Jul-13 11:30N 31°51' W 119°41'4 8.2
2018-Jul-13 11:00N 31°48' W 119°44'4 8.3
2018-Jul-13 10:30N 31°45' W 119°47'4 8.4
2018-Jul-13 10:00N 31°42' W 119°51'5 8.3
2018-Jul-13 09:24N 31°39' W 119°55'3 8.1
2018-Jul-13 09:00N 31°36' W 119°58'4 8.1
2018-Jul-13 08:30N 31°34' W 120°02'5 8.0
2018-Jul-13 07:55N 31°30' W 120°06'3 7.9
2018-Jul-13 07:30N 31°28' W 120°08'4 7.7
2018-Jul-13 07:01N 31°25' W 120°11'4 7.9
2018-Jul-13 06:30N 31°22' W 120°14'4 7.9
2018-Jul-13 06:00N 31°19' W 120°18'4 7.9
2018-Jul-13 05:31N 31°16' W 120°21'4 8.1
2018-Jul-13 04:59N 31°13' W 120°24'2 4.9
2018-Jul-13 04:29N 31°11' W 120°26'5 1.5
2018-Jul-13 01:03N 31°16' W 120°24'5 1.7
2018-Jul-12 22:17N 31°21' W 120°23'0 1.6
2018-Jul-12 22:00N 31°21' W 120°23'1 1.5
2018-Jul-12 21:26N 31°22' W 120°23'8 1.6
2018-Jul-12 16:02N 31°29' W 120°17'0 1.5
2018-Jul-12 16:00N 31°29' W 120°17'1 1.9
2018-Jul-12 15:21N 31°30' W 120°17'1 1.9
2018-Jul-12 14:41N 31°31' W 120°16'1 2.0
2018-Jul-12 14:19N 31°32' W 120°15'1 2.0
2018-Jul-12 13:58N 31°32' W 120°15'2 2.1
2018-Jul-12 13:07N 31°34' W 120°14'0 2.2
2018-Jul-12 12:58N 31°34' W 120°13'1 2.3
2018-Jul-12 12:30N 31°35' W 120°13'1 2.2
2018-Jul-12 11:59N 31°36' W 120°12'1 2.2
2018-Jul-12 11:29N 31°37' W 120°12'1 2.1
2018-Jul-12 10:54N 31°38' W 120°12'1 2.0
2018-Jul-12 10:30N 31°39' W 120°11'1 2.1
2018-Jul-12 09:52N 31°41' W 120°11'1 2.0
2018-Jul-12 09:30N 31°41' W 120°11'1 2.0
2018-Jul-12 09:00N 31°42' W 120°11'1 2.0
2018-Jul-12 08:26N 31°43' W 120°10'2 2.0
2018-Jul-12 07:31N 31°45' W 120°10'3 2.1
2018-Jul-12 06:16N 31°48' W 120°10'1 2.2
2018-Jul-12 05:49N 31°49' W 120°10'1 2.3
2018-Jul-12 05:21N 31°50' W 120°09'1 2.4
2018-Jul-12 05:00N 31°51' W 120°09'3 2.4
2018-Jul-12 03:43N 31°54' W 120°08'1 2.4
2018-Jul-12 03:17N 31°55' W 120°08'1 2.4
2018-Jul-12 02:58N 31°55' W 120°08'2 2.6
2018-Jul-12 02:07N 31°58' W 120°08'2 2.6
2018-Jul-12 01:32N 31°59' W 120°07'0 2.8
2018-Jul-12 01:30N 31°59' W 120°07'1 2.7
2018-Jul-12 01:00N 32°01' W 120°07'2 2.8
2018-Jul-12 00:19N 32°02' W 120°06'1 2.9
2018-Jul-12 00:00N 32°03' W 120°06'1 2.9
2018-Jul-11 23:30N 32°05' W 120°06'1 2.8
2018-Jul-11 22:59N 32°06' W 120°05'1 2.8
2018-Jul-11 22:29N 32°07' W 120°04'1 2.8
2018-Jul-11 22:00N 32°09' W 120°04'1 2.8
2018-Jul-11 21:30N 32°10' W 120°04'1 2.8
2018-Jul-11 21:00N 32°11' W 120°03'1 2.8
2018-Jul-11 20:30N 32°13' W 120°03'1 2.8
2018-Jul-11 20:00N 32°14' W 120°03'1 2.8
2018-Jul-11 19:30N 32°16' W 120°02'1 2.7
2018-Jul-11 19:00N 32°17' W 120°02'1 2.8
2018-Jul-11 18:29N 32°18' W 120°02'1 2.8
2018-Jul-11 17:57N 32°20' W 120°01'1 2.8
2018-Jul-11 17:29N 32°21' W 120°01'1 2.8
2018-Jul-11 17:00N 32°22' W 120°01'1 2.7
2018-Jul-11 16:29N 32°24' W 120°01'1 2.6
2018-Jul-11 15:59N 32°25' W 120°00'1 2.5
2018-Jul-11 15:30N 32°26' W 120°00'1 2.4
2018-Jul-11 14:59N 32°27' W 120°00'1 2.4
2018-Jul-11 14:29N 32°29' W 120°00'1 2.6
2018-Jul-11 14:00N 32°30' W 120°00'1 2.1
2018-Jul-11 13:31N 32°31' W 120°00'4 7.9
2018-Jul-11 13:01N 32°27' W 119°59'4 8.2
2018-Jul-11 12:30N 32°23' W 119°58'4 8.2
2018-Jul-11 12:00N 32°19' W 119°56'4 8.2
2018-Jul-11 11:30N 32°16' W 119°54'4 8.5
2018-Jul-11 11:01N 32°12' W 119°52'4 8.8
2018-Jul-11 10:30N 32°08' W 119°50'5 9.0
2018-Jul-11 10:00N 32°03' W 119°48'4 8.9
2018-Jul-11 09:30N 31°59' W 119°46'4 8.6
2018-Jul-11 09:00N 31°55' W 119°44'4 8.3
2018-Jul-11 08:30N 31°51' W 119°42'4 8.3
2018-Jul-11 08:00N 31°48' W 119°40'4 8.7
2018-Jul-11 07:30N 31°44' W 119°38'5 8.9
2018-Jul-11 07:00N 31°39' W 119°37'5 9.0
2018-Jul-11 06:29N 31°35' W 119°35'4 8.9
2018-Jul-11 06:00N 31°31' W 119°33'4 9.0
2018-Jul-11 05:30N 31°27' W 119°31'4 7.1
2018-Jul-11 05:00N 31°23' W 119°30'1 2.6
2018-Jul-11 04:30N 31°23' W 119°29'1 1.4
2018-Jul-11 03:53N 31°23' W 119°29'1 1.4
2018-Jul-11 03:30N 31°24' W 119°29'1 1.3
2018-Jul-11 02:57N 31°25' W 119°29'1 1.3
2018-Jul-11 02:30N 31°25' W 119°29'1 1.3
2018-Jul-11 02:00N 31°26' W 119°29'1 1.2
2018-Jul-11 01:30N 31°26' W 119°29'1 1.3
2018-Jul-11 01:00N 31°27' W 119°29'1 1.3
2018-Jul-11 00:30N 31°28' W 119°29'1 1.3
2018-Jul-11 00:00N 31°28' W 119°29'1 1.3
2018-Jul-10 23:30N 31°29' W 119°29'1 1.3
2018-Jul-10 23:01N 31°30' W 119°28'1 1.4
2018-Jul-10 22:30N 31°30' W 119°28'1 1.4
2018-Jul-10 22:00N 31°31' W 119°28'1 1.4
2018-Jul-10 21:30N 31°32' W 119°28'1 1.6
2018-Jul-10 21:00N 31°32' W 119°28'1 1.6
2018-Jul-10 20:26N 31°33' W 119°28'1 1.6
2018-Jul-10 20:00N 31°34' W 119°28'1 1.6
2018-Jul-10 19:30N 31°35' W 119°28'1 1.6
2018-Jul-10 19:00N 31°36' W 119°29'1 1.2
2018-Jul-10 18:30N 31°36' W 119°29'0 0.9
2018-Jul-10 18:00N 31°36' W 119°29'0 0.9
2018-Jul-10 17:30N 31°37' W 119°30'0 0.7
2018-Jul-10 17:00N 31°37' W 119°30'0 0.8
2018-Jul-10 16:30N 31°38' W 119°30'0 0.9
2018-Jul-10 15:57N 31°38' W 119°30'0 0.9
2018-Jul-10 15:30N 31°38' W 119°30'0 0.9
2018-Jul-10 15:00N 31°39' W 119°30'0 0.8
2018-Jul-10 14:30N 31°39' W 119°31'0 0.7
2018-Jul-10 14:00N 31°39' W 119°31'0 0.6
2018-Jul-10 13:30N 31°40' W 119°31'0 0.7
2018-Jul-10 13:00N 31°40' W 119°31'0 0.8
2018-Jul-10 12:30N 31°40' W 119°31'0 0.8
2018-Jul-10 12:00N 31°41' W 119°31'0 1.0
2018-Jul-10 11:30N 31°41' W 119°31'0 1.0
2018-Jul-10 11:00N 31°42' W 119°31'1 1.0
2018-Jul-10 10:30N 31°42' W 119°31'1 1.1
2018-Jul-10 09:59N 31°43' W 119°32'1 1.5
2018-Jul-10 09:30N 31°44' W 119°32'1 1.7
2018-Jul-10 09:01N 31°44' W 119°32'1 1.7
2018-Jul-10 08:30N 31°45' W 119°32'1 1.6
2018-Jul-10 08:00N 31°46' W 119°32'1 1.5
2018-Jul-10 07:30N 31°47' W 119°32'1 1.8
2018-Jul-10 07:00N 31°48' W 119°32'1 1.9
2018-Jul-10 06:30N 31°49' W 119°32'1 1.9
2018-Jul-10 06:00N 31°50' W 119°31'1 1.9
2018-Jul-10 05:30N 31°50' W 119°31'1 1.9
2018-Jul-10 05:00N 31°51' W 119°31'1 2.0
2018-Jul-10 04:30N 31°52' W 119°31'1 1.8
2018-Jul-10 04:00N 31°53' W 119°31'1 1.8
2018-Jul-10 03:30N 31°54' W 119°31'1 2.1
2018-Jul-10 03:00N 31°55' W 119°31'1 2.1
2018-Jul-10 02:30N 31°56' W 119°31'1 1.9
2018-Jul-10 01:59N 31°57' W 119°31'2 1.9
2018-Jul-10 01:09N 31°59' W 119°30'0 2.0
2018-Jul-10 01:00N 31°59' W 119°30'1 2.0
2018-Jul-10 00:28N 32°00' W 119°30'1 2.1
2018-Jul-10 00:00N 32°01' W 119°30'1 2.1
2018-Jul-09 23:30N 32°02' W 119°30'1 2.1
2018-Jul-09 23:00N 32°03' W 119°30'1 2.2
2018-Jul-09 22:30N 32°04' W 119°30'1 2.2
2018-Jul-09 22:00N 32°06' W 119°30'1 2.2
2018-Jul-09 21:30N 32°07' W 119°30'1 2.0
2018-Jul-09 21:01N 32°08' W 119°30'1 2.0
2018-Jul-09 20:30N 32°09' W 119°31'1 1.9
2018-Jul-09 20:00N 32°10' W 119°31'1 2.1
2018-Jul-09 19:30N 32°11' W 119°31'3 5.2
2018-Jul-09 19:00N 32°12' W 119°33'612.3
2018-Jul-09 18:30N 32°13' W 119°40'613.0
2018-Jul-09 18:00N 32°15' W 119°48'612.8
2018-Jul-09 17:30N 32°16' W 119°55'612.6
2018-Jul-09 17:00N 32°17' W 120°03'612.5
2018-Jul-09 16:30N 32°19' W 120°10'612.5
2018-Jul-09 16:00N 32°20' W 120°17'713.2
2018-Jul-09 15:30N 32°22' W 120°25'713.6
2018-Jul-09 15:00N 32°23' W 120°32'612.7
2018-Jul-09 14:30N 32°25' W 120°40'612.3
2018-Jul-09 14:00N 32°26' W 120°47'612.7
2018-Jul-09 13:31N 32°28' W 120°54'612.6
2018-Jul-09 13:00N 32°29' W 121°02'612.7
2018-Jul-09 12:30N 32°30' W 121°09'613.0
2018-Jul-09 12:00N 32°32' W 121°16'612.9
2018-Jul-09 11:30N 32°33' W 121°24'612.6
2018-Jul-09 11:00N 32°35' W 121°31'612.3
2018-Jul-09 10:30N 32°39' W 121°36'612.6
2018-Jul-09 10:00N 32°45' W 121°39'612.4
2018-Jul-09 09:30N 32°50' W 121°43'612.5
2018-Jul-09 09:00N 32°56' W 121°47'612.3
2018-Jul-09 08:30N 33°01' W 121°51'612.5
2018-Jul-09 08:00N 33°06' W 121°55'612.4
2018-Jul-09 07:30N 33°11' W 121°59'612.3
2018-Jul-09 07:00N 33°17' W 122°03'612.5
2018-Jul-09 06:30N 33°22' W 122°06'612.8
2018-Jul-09 06:00N 33°27' W 122°10'712.8
2018-Jul-09 05:29N 33°33' W 122°15'612.6
2018-Jul-09 05:00N 33°38' W 122°18'612.7
2018-Jul-09 04:30N 33°44' W 122°22'612.8
2018-Jul-09 04:00N 33°49' W 122°26'713.0
2018-Jul-09 03:30N 33°55' W 122°30'612.7
2018-Jul-09 03:00N 34°00' W 122°34'612.6
2018-Jul-09 02:30N 34°06' W 122°38'612.7
2018-Jul-09 02:00N 34°11' W 122°42'612.7
2018-Jul-09 01:30N 34°16' W 122°46'612.9
2018-Jul-09 01:00N 34°22' W 122°50'712.9
2018-Jul-09 00:30N 34°28' W 122°54'612.9
2018-Jul-09 00:00N 34°33' W 122°58'612.5
2018-Jul-08 23:30N 34°39' W 123°00'713.0
2018-Jul-08 23:00N 34°46' W 123°01'713.1
2018-Jul-08 22:30N 34°52' W 123°02'  
Track history (hours):
 
Tides and Currents Weather Stations Pressure Air Temp Water Temp Dewpoint Dewpoint Depression Visibility Wind Speed Wind Dir Waves Ship Positions

Aristoklis

Last reported at 2018-Jul-18 22:00 UTC. Time now 2018-Jul-18 22:15 UTC.
Position N 37°21' W 123°19'.

Length 250 m; draft 9.6 m.

Type: Tanker. MMSI: 538007127.

Date/timePositionNaut miles runAvg speedWind from/ knotsBaromVisibWave heightAir tempDewpointWater temp
2018-Jul-18 22:00N 37°21' W 123°19'1 1.4
2018-Jul-18 21:31N 37°21' W 123°19'1 1.2
2018-Jul-18 21:01N 37°22' W 123°18'1 1.4
2018-Jul-18 20:31N 37°22' W 123°18'1 2.4
2018-Jul-18 19:58N 37°24' W 123°18'2 4.4
2018-Jul-18 19:30N 37°24' W 123°20'510.8
2018-Jul-18 19:00N 37°22' W 123°27'5 9.5
2018-Jul-18 18:30N 37°20' W 123°32'511.1
2018-Jul-18 18:01N 37°18' W 123°39'611.5
2018-Jul-18 17:31N 37°16' W 123°45'3 6.8
2018-Jul-18 17:01N 37°15' W 123°50'1 2.0
2018-Jul-18 16:30N 37°16' W 123°48'1 2.0
2018-Jul-18 16:00N 37°17' W 123°48'1 1.9
2018-Jul-18 15:30N 37°17' W 123°47'1 1.9
2018-Jul-18 15:01N 37°18' W 123°47'1 2.0
2018-Jul-18 14:30N 37°19' W 123°46'2 1.9
2018-Jul-18 13:30N 37°20' W 123°44'1 2.1
2018-Jul-18 13:00N 37°21' W 123°43'1 1.9
2018-Jul-18 12:30N 37°22' W 123°43'1 1.8
2018-Jul-18 12:00N 37°22' W 123°42'1 2.0
2018-Jul-18 11:31N 37°23' W 123°41'2 2.0
2018-Jul-18 10:31N 37°24' W 123°39'1 1.9
2018-Jul-18 10:00N 37°25' W 123°38'1 1.7
2018-Jul-18 09:30N 37°26' W 123°38'1 1.9
2018-Jul-18 09:00N 37°27' W 123°37'1 1.8
2018-Jul-18 08:31N 37°28' W 123°37'1 1.9
2018-Jul-18 08:00N 37°29' W 123°36'1 1.6
2018-Jul-18 07:30N 37°29' W 123°36'1 1.1
2018-Jul-18 07:01N 37°30' W 123°36'3 6.4
2018-Jul-18 06:30N 37°30' W 123°32'5 9.6
2018-Jul-18 06:00N 37°26' W 123°27'611.9
2018-Jul-18 05:30N 37°21' W 123°24'611.9
2018-Jul-18 05:00N 37°15' W 123°21'612.1
2018-Jul-18 04:31N 37°10' W 123°18'612.5
2018-Jul-18 04:00N 37°04' W 123°15'612.1
2018-Jul-18 03:31N 36°58' W 123°13'612.1
2018-Jul-18 03:00N 36°52' W 123°12'612.0
2018-Jul-18 02:30N 36°46' W 123°12'612.1
2018-Jul-18 02:01N 36°40' W 123°11'612.1
2018-Jul-18 01:31N 36°34' W 123°11'611.9
2018-Jul-18 01:01N 36°28' W 123°10'611.9
2018-Jul-18 00:30N 36°22' W 123°10'612.1
2018-Jul-18 00:00N 36°16' W 123°09'612.1
2018-Jul-17 23:30N 36°10' W 123°09'612.0
2018-Jul-17 23:01N 36°04' W 123°08'612.1
2018-Jul-17 22:30N 35°58' W 123°07'611.8
2018-Jul-17 22:01N 35°52' W 123°07'611.6
2018-Jul-17 21:30N 35°47' W 123°06'611.7
2018-Jul-17 21:00N 35°41' W 123°06'611.8
2018-Jul-17 20:30N 35°35' W 123°05'611.3
2018-Jul-17 20:01N 35°30' W 123°03'612.2
2018-Jul-17 19:31N 35°25' W 122°58'612.3
2018-Jul-17 19:01N 35°21' W 122°52'612.3
2018-Jul-17 18:30N 35°17' W 122°47'612.5
2018-Jul-17 18:00N 35°13' W 122°41'612.7
2018-Jul-17 17:31N 35°09' W 122°35'612.8
2018-Jul-17 17:01N 35°04' W 122°30'713.0
2018-Jul-17 16:30N 34°60' W 122°24'713.2
2018-Jul-17 16:00N 34°55' W 122°18'713.4
2018-Jul-17 15:30N 34°51' W 122°12'713.4
2018-Jul-17 15:00N 34°46' W 122°06'713.7
2018-Jul-17 14:30N 34°42' W 121°60'713.4
2018-Jul-17 14:01N 34°37' W 121°54'713.4
2018-Jul-17 13:30N 34°32' W 121°48'713.2
2018-Jul-17 13:01N 34°28' W 121°42'713.6
2018-Jul-17 12:30N 34°23' W 121°36'713.7
2018-Jul-17 12:00N 34°17' W 121°31'713.8
2018-Jul-17 11:31N 34°12' W 121°27'713.7
2018-Jul-17 11:00N 34°06' W 121°22'713.7
2018-Jul-17 10:31N 34°01' W 121°17'713.5
2018-Jul-17 10:00N 33°55' W 121°12'713.3
2018-Jul-17 09:30N 33°50' W 121°08'713.8
2018-Jul-17 09:00N 33°44' W 121°03'713.9
2018-Jul-17 08:30N 33°39' W 120°58'713.8
2018-Jul-17 08:00N 33°33' W 120°53'713.8
2018-Jul-17 07:30N 33°27' W 120°48'713.7
2018-Jul-17 07:00N 33°22' W 120°43'714.0
2018-Jul-17 06:30N 33°16' W 120°38'714.1
2018-Jul-17 06:00N 33°10' W 120°34'713.8
2018-Jul-17 05:30N 33°05' W 120°29'713.5
2018-Jul-17 05:00N 32°59' W 120°24'713.1
2018-Jul-17 04:30N 32°54' W 120°20'713.0
2018-Jul-17 03:59N 32°49' W 120°15'1313.1
2018-Jul-17 02:59N 32°38' W 120°06'613.2
2018-Jul-17 02:30N 32°33' W 120°01'713.1
2018-Jul-17 02:00N 32°27' W 119°57'613.0
2018-Jul-17 01:30N 32°22' W 119°52'612.7
2018-Jul-17 01:00N 32°17' W 119°48'612.5
2018-Jul-17 00:30N 32°12' W 119°44'1312.7
2018-Jul-16 23:30N 32°02' W 119°35'713.0
2018-Jul-16 23:00N 31°56' W 119°30'713.2
2018-Jul-16 22:30N 31°51' W 119°26'612.9
2018-Jul-16 22:00N 31°46' W 119°22'613.0
2018-Jul-16 21:30N 31°40' W 119°18'612.3
2018-Jul-16 21:00N 31°34' W 119°15'5 9.5
2018-Jul-16 20:30N 31°31' W 119°11'1 1.4
2018-Jul-16 20:00N 31°32' W 119°10'1 2.5
2018-Jul-16 19:30N 31°33' W 119°11'2 3.8
2018-Jul-16 19:00N 31°34' W 119°12'2 3.6
2018-Jul-16 18:30N 31°36' W 119°13'1 2.9
2018-Jul-16 18:00N 31°37' W 119°14'1 2.4
2018-Jul-16 17:30N 31°38' W 119°15'1 2.1
2018-Jul-16 17:00N 31°38' W 119°16'1 1.7
2018-Jul-16 16:30N 31°39' W 119°17'1 1.7
2018-Jul-16 16:00N 31°39' W 119°18'1 1.6
2018-Jul-16 15:23N 31°40' W 119°19'1 1.6
2018-Jul-16 14:58N 31°40' W 119°20'1 1.6
2018-Jul-16 14:30N 31°41' W 119°20'1 1.4
2018-Jul-16 13:57N 31°41' W 119°21'1 1.2
2018-Jul-16 13:30N 31°41' W 119°22'1 1.2
2018-Jul-16 13:00N 31°41' W 119°22'1 1.0
2018-Jul-16 12:30N 31°42' W 119°23'1 1.2
2018-Jul-16 12:00N 31°42' W 119°23'1 1.2
2018-Jul-16 11:30N 31°42' W 119°24'1 1.1
2018-Jul-16 11:00N 31°43' W 119°24'1 1.1
2018-Jul-16 10:31N 31°43' W 119°25'1 1.4
2018-Jul-16 10:01N 31°44' W 119°25'1 1.2
2018-Jul-16 09:30N 31°44' W 119°26'1 1.3
2018-Jul-16 09:00N 31°45' W 119°26'1 1.2
2018-Jul-16 08:31N 31°45' W 119°27'1 1.1
2018-Jul-16 08:00N 31°46' W 119°27'1 1.1
2018-Jul-16 07:30N 31°46' W 119°27'1 1.2
2018-Jul-16 07:00N 31°46' W 119°28'1 1.1
2018-Jul-16 06:30N 31°47' W 119°28'0 1.0
2018-Jul-16 06:00N 31°47' W 119°28'1 1.6
2018-Jul-16 05:30N 31°48' W 119°29'1 2.0
2018-Jul-16 05:01N 31°49' W 119°30'1 2.2
2018-Jul-16 04:30N 31°49' W 119°31'1 2.6
2018-Jul-16 04:00N 31°50' W 119°32'1 2.6
2018-Jul-16 03:30N 31°51' W 119°33'1 2.7
2018-Jul-16 03:00N 31°53' W 119°34'1 2.6
2018-Jul-16 02:30N 31°54' W 119°35'2 3.0
2018-Jul-16 02:00N 31°55' W 119°35'2 4.8
2018-Jul-16 01:30N 31°57' W 119°37'3 6.2
2018-Jul-16 01:00N 31°59' W 119°40'3 5.7
2018-Jul-16 00:30N 32°01' W 119°42'3 5.8
2018-Jul-15 23:58N 32°04' W 119°44'2 4.6
2018-Jul-15 23:30N 32°05' W 119°46'2 3.4
2018-Jul-15 23:00N 32°06' W 119°47'3 5.1
2018-Jul-15 22:30N 32°08' W 119°49'3 5.5
2018-Jul-15 22:01N 32°10' W 119°52'3 5.0
2018-Jul-15 21:30N 32°11' W 119°54'4 7.0
2018-Jul-15 21:00N 32°12' W 119°58'2 3.8
2018-Jul-15 20:21N 32°14' W 120°00'1 2.5
2018-Jul-15 19:57N 32°15' W 120°00'2 2.5
2018-Jul-15 19:08N 32°17' W 120°01'0 2.5
2018-Jul-15 19:00N 32°17' W 120°01'2 2.5
2018-Jul-15 18:24N 32°19' W 120°01'1 2.5
2018-Jul-15 17:59N 32°20' W 120°01'1 2.5
2018-Jul-15 17:28N 32°21' W 120°01'1 2.9
2018-Jul-15 17:00N 32°22' W 120°00'2 4.3
2018-Jul-15 16:30N 32°21' W 119°58'4 7.1
2018-Jul-15 16:00N 32°18' W 119°56'4 7.2
2018-Jul-15 15:30N 32°15' W 119°55'4 7.1
2018-Jul-15 15:00N 32°11' W 119°53'4 7.0
2018-Jul-15 14:30N 32°08' W 119°52'3 6.8
2018-Jul-15 14:00N 32°05' W 119°50'3 6.8
2018-Jul-15 13:30N 32°02' W 119°49'3 6.8
2018-Jul-15 13:01N 31°59' W 119°47'3 6.8
2018-Jul-15 12:30N 31°56' W 119°45'4 7.0
2018-Jul-15 12:00N 31°52' W 119°44'4 7.0
2018-Jul-15 11:30N 31°49' W 119°42'4 7.2
2018-Jul-15 11:00N 31°46' W 119°40'4 7.1
2018-Jul-15 10:31N 31°43' W 119°38'4 7.4
2018-Jul-15 10:01N 31°39' W 119°36'4 7.5
2018-Jul-15 09:31N 31°36' W 119°35'4 7.6
2018-Jul-15 09:01N 31°33' W 119°33'4 7.4
2018-Jul-15 08:30N 31°29' W 119°31'4 7.3
2018-Jul-15 08:00N 31°26' W 119°29'4 7.3
2018-Jul-15 07:30N 31°23' W 119°27'4 7.2
2018-Jul-15 07:00N 31°19' W 119°26'3 7.0
2018-Jul-15 06:30N 31°16' W 119°24'4 7.2
2018-Jul-15 06:00N 31°13' W 119°22'4 7.3
2018-Jul-15 05:30N 31°09' W 119°20'4 7.2
2018-Jul-15 05:00N 31°06' W 119°19'2 3.7
2018-Jul-15 04:30N 31°05' W 119°17'2 2.6
2018-Jul-15 03:40N 31°07' W 119°18'0 2.4
2018-Jul-15 03:29N 31°07' W 119°18'5 2.3
2018-Jul-15 01:13N 31°12' W 119°19'0 2.1
2018-Jul-15 00:59N 31°13' W 119°19'1 2.0
2018-Jul-15 00:26N 31°14' W 119°19'1 2.0
2018-Jul-15 00:00N 31°15' W 119°20'1 2.0
2018-Jul-14 23:30N 31°16' W 119°20'1 2.0
2018-Jul-14 23:00N 31°17' W 119°20'2 2.1
2018-Jul-14 22:07N 31°19' W 119°20'0 2.1
2018-Jul-14 22:00N 31°19' W 119°20'1 2.1
2018-Jul-14 21:30N 31°20' W 119°20'1 2.2
2018-Jul-14 21:00N 31°21' W 119°20'1 2.0
2018-Jul-14 20:30N 31°22' W 119°20'1 1.9
2018-Jul-14 20:00N 31°23' W 119°20'1 2.0
2018-Jul-14 19:27N 31°24' W 119°20'1 1.8
2018-Jul-14 18:47N 31°25' W 119°20'0 1.8
2018-Jul-14 18:30N 31°26' W 119°20'1 2.0
2018-Jul-14 17:53N 31°27' W 119°20'1 2.1
2018-Jul-14 17:30N 31°28' W 119°20'1 2.0
2018-Jul-14 17:00N 31°29' W 119°20'1 2.1
2018-Jul-14 16:30N 31°30' W 119°20'1 2.2
2018-Jul-14 16:01N 31°31' W 119°20'1 2.3
2018-Jul-14 15:30N 31°32' W 119°21'1 2.4
2018-Jul-14 15:00N 31°33' W 119°21'2 2.3
2018-Jul-14 14:06N 31°35' W 119°21'1 2.1
2018-Jul-14 13:29N 31°37' W 119°21'1 1.9
2018-Jul-14 13:00N 31°37' W 119°22'1 1.8
2018-Jul-14 12:30N 31°38' W 119°22'1 1.9
2018-Jul-14 11:58N 31°39' W 119°22'1 1.9
2018-Jul-14 11:28N 31°40' W 119°22'1 1.9
2018-Jul-14 10:49N 31°42' W 119°22'1 1.9
2018-Jul-14 10:19N 31°42' W 119°22'1 1.9
2018-Jul-14 09:59N 31°43' W 119°22'1 2.0
2018-Jul-14 09:30N 31°44' W 119°22'3 2.0
2018-Jul-14 08:14N 31°47' W 119°21'4 2.0
2018-Jul-14 06:20N 31°50' W 119°20'1 2.0
2018-Jul-14 05:57N 31°51' W 119°20'1 2.1
2018-Jul-14 05:24N 31°52' W 119°20'1 2.0
2018-Jul-14 05:00N 31°53' W 119°19'1 1.8
2018-Jul-14 04:28N 31°54' W 119°19'1 1.9
2018-Jul-14 04:00N 31°55' W 119°19'1 1.9
2018-Jul-14 03:30N 31°56' W 119°19'1 1.8
2018-Jul-14 02:52N 31°57' W 119°19'1 1.8
2018-Jul-14 02:28N 31°58' W 119°19'1 1.8
2018-Jul-14 02:00N 31°58' W 119°19'1 1.8
2018-Jul-14 01:20N 31°60' W 119°19'1 1.8
2018-Jul-14 00:35N 32°01' W 119°19'0 1.9
2018-Jul-14 00:30N 32°01' W 119°19'2 1.6
2018-Jul-13 23:19N 32°03' W 119°19'1 1.3
2018-Jul-13 22:36N 32°04' W 119°20'0 1.2
2018-Jul-13 22:29N 32°04' W 119°20'1 1.1
2018-Jul-13 21:59N 32°04' W 119°20'0 1.0
2018-Jul-13 21:30N 32°05' W 119°20'1 1.1
2018-Jul-13 20:57N 32°05' W 119°21'0 1.1
2018-Jul-13 20:30N 32°06' W 119°21'1 0.9
2018-Jul-13 19:54N 32°06' W 119°21'0 0.8
2018-Jul-13 19:31N 32°07' W 119°21'0 0.8
2018-Jul-13 19:00N 32°07' W 119°21'0 0.6
2018-Jul-13 18:16N 32°07' W 119°22'0 0.5
2018-Jul-13 18:00N 32°07' W 119°22'0 0.3
2018-Jul-13 17:30N 32°08' W 119°22'0 0.4
2018-Jul-13 17:00N 32°08' W 119°22'0 0.5
2018-Jul-13 16:07N 32°08' W 119°22'0 0.6
2018-Jul-13 15:57N 32°08' W 119°22'0 0.7
2018-Jul-13 15:15N 32°09' W 119°22'0 0.8
2018-Jul-13 15:00N 32°09' W 119°22'0 0.9
2018-Jul-13 14:30N 32°09' W 119°22'7 7.1
2018-Jul-13 13:30N 32°03' W 119°27'5 9.0
2018-Jul-13 12:59N 32°00' W 119°30'5 8.9
2018-Jul-13 12:27N 31°57' W 119°34'4 8.8
2018-Jul-13 11:57N 31°53' W 119°38'4 8.3
2018-Jul-13 11:30N 31°51' W 119°41'4 8.2
2018-Jul-13 11:00N 31°48' W 119°44'4 8.3
2018-Jul-13 10:30N 31°45' W 119°47'4 8.4
2018-Jul-13 10:00N 31°42' W 119°51'5 8.3
2018-Jul-13 09:24N 31°39' W 119°55'3 8.1
2018-Jul-13 09:00N 31°36' W 119°58'4 8.1
2018-Jul-13 08:30N 31°34' W 120°02'5 8.0
2018-Jul-13 07:55N 31°30' W 120°06'3 7.9
2018-Jul-13 07:30N 31°28' W 120°08'4 7.7
2018-Jul-13 07:01N 31°25' W 120°11'4 7.9
2018-Jul-13 06:30N 31°22' W 120°14'4 7.9
2018-Jul-13 06:00N 31°19' W 120°18'4 7.9
2018-Jul-13 05:31N 31°16' W 120°21'4 8.1
2018-Jul-13 04:59N 31°13' W 120°24'2 4.9
2018-Jul-13 04:29N 31°11' W 120°26'5 1.5
2018-Jul-13 01:03N 31°16' W 120°24'5 1.7
2018-Jul-12 22:17N 31°21' W 120°23'0 1.6
2018-Jul-12 22:00N 31°21' W 120°23'1 1.5
2018-Jul-12 21:26N 31°22' W 120°23'8 1.6
2018-Jul-12 16:02N 31°29' W 120°17'0 1.5
2018-Jul-12 16:00N 31°29' W 120°17'1 1.9
2018-Jul-12 15:21N 31°30' W 120°17'1 1.9
2018-Jul-12 14:41N 31°31' W 120°16'1 2.0
2018-Jul-12 14:19N 31°32' W 120°15'1 2.0
2018-Jul-12 13:58N 31°32' W 120°15'2 2.1
2018-Jul-12 13:07N 31°34' W 120°14'0 2.2
2018-Jul-12 12:58N 31°34' W 120°13'1 2.3
2018-Jul-12 12:30N 31°35' W 120°13'1 2.2
2018-Jul-12 11:59N 31°36' W 120°12'1 2.2
2018-Jul-12 11:29N 31°37' W 120°12'1 2.1
2018-Jul-12 10:54N 31°38' W 120°12'1 2.0
2018-Jul-12 10:30N 31°39' W 120°11'1 2.1
2018-Jul-12 09:52N 31°41' W 120°11'1 2.0
2018-Jul-12 09:30N 31°41' W 120°11'1 2.0
2018-Jul-12 09:00N 31°42' W 120°11'1 2.0
2018-Jul-12 08:26N 31°43' W 120°10'2 2.0
2018-Jul-12 07:31N 31°45' W 120°10'3 2.1
2018-Jul-12 06:16N 31°48' W 120°10'1 2.2
2018-Jul-12 05:49N 31°49' W 120°10'1 2.3
2018-Jul-12 05:21N 31°50' W 120°09'1 2.4
2018-Jul-12 05:00N 31°51' W 120°09'3 2.4
2018-Jul-12 03:43N 31°54' W 120°08'1 2.4
2018-Jul-12 03:17N 31°55' W 120°08'1 2.4
2018-Jul-12 02:58N 31°55' W 120°08'2 2.6
2018-Jul-12 02:07N 31°58' W 120°08'2 2.6
2018-Jul-12 01:32N 31°59' W 120°07'0 2.8
2018-Jul-12 01:30N 31°59' W 120°07'1 2.7
2018-Jul-12 01:00N 32°01' W 120°07'2 2.8
2018-Jul-12 00:19N 32°02' W 120°06'1 2.9
2018-Jul-12 00:00N 32°03' W 120°06'1 2.9
2018-Jul-11 23:30N 32°05' W 120°06'1 2.8
2018-Jul-11 22:59N 32°06' W 120°05'1 2.8
2018-Jul-11 22:29N 32°07' W 120°04'1 2.8
2018-Jul-11 22:00N 32°09' W 120°04'1 2.8
2018-Jul-11 21:30N 32°10' W 120°04'1 2.8
2018-Jul-11 21:00N 32°11' W 120°03'1 2.8
2018-Jul-11 20:30N 32°13' W 120°03'1 2.8
2018-Jul-11 20:00N 32°14' W 120°03'1 2.8
2018-Jul-11 19:30N 32°16' W 120°02'1 2.7
2018-Jul-11 19:00N 32°17' W 120°02'1 2.8
2018-Jul-11 18:29N 32°18' W 120°02'1 2.8
2018-Jul-11 17:57N 32°20' W 120°01'1 2.8
2018-Jul-11 17:29N 32°21' W 120°01'1 2.8
2018-Jul-11 17:00N 32°22' W 120°01'1 2.7
2018-Jul-11 16:29N 32°24' W 120°01'1 2.6
2018-Jul-11 15:59N 32°25' W 120°00'1 2.5
2018-Jul-11 15:30N 32°26' W 120°00'1 2.4
2018-Jul-11 14:59N 32°27' W 120°00'1 2.4
2018-Jul-11 14:29N 32°29' W 120°00'1 2.6
2018-Jul-11 14:00N 32°30' W 120°00'1 2.1
2018-Jul-11 13:31N 32°31' W 120°00'4 7.9
2018-Jul-11 13:01N 32°27' W 119°59'4 8.2
2018-Jul-11 12:30N 32°23' W 119°58'4 8.2
2018-Jul-11 12:00N 32°19' W 119°56'4 8.2
2018-Jul-11 11:30N 32°16' W 119°54'4 8.5
2018-Jul-11 11:01N 32°12' W 119°52'4 8.8
2018-Jul-11 10:30N 32°08' W 119°50'5 9.0
2018-Jul-11 10:00N 32°03' W 119°48'4 8.9
2018-Jul-11 09:30N 31°59' W 119°46'4 8.6
2018-Jul-11 09:00N 31°55' W 119°44'4 8.3
2018-Jul-11 08:30N 31°51' W 119°42'4 8.3
2018-Jul-11 08:00N 31°48' W 119°40'4 8.7
2018-Jul-11 07:30N 31°44' W 119°38'5 8.9
2018-Jul-11 07:00N 31°39' W 119°37'5 9.0
2018-Jul-11 06:29N 31°35' W 119°35'4 8.9
2018-Jul-11 06:00N 31°31' W 119°33'4 9.0
2018-Jul-11 05:30N 31°27' W 119°31'4 7.1
2018-Jul-11 05:00N 31°23' W 119°30'1 2.6
2018-Jul-11 04:30N 31°23' W 119°29'1 1.4
2018-Jul-11 03:53N 31°23' W 119°29'1 1.4
2018-Jul-11 03:30N 31°24' W 119°29'1 1.3
2018-Jul-11 02:57N 31°25' W 119°29'1 1.3
2018-Jul-11 02:30N 31°25' W 119°29'1 1.3
2018-Jul-11 02:00N 31°26' W 119°29'1 1.2
2018-Jul-11 01:30N 31°26' W 119°29'1 1.3
2018-Jul-11 01:00N 31°27' W 119°29'1 1.3
2018-Jul-11 00:30N 31°28' W 119°29'1 1.3
2018-Jul-11 00:00N 31°28' W 119°29'1 1.3
2018-Jul-10 23:30N 31°29' W 119°29'1 1.3
2018-Jul-10 23:01N 31°30' W 119°28'1 1.4
2018-Jul-10 22:30N 31°30' W 119°28'1 1.4
2018-Jul-10 22:00N 31°31' W 119°28'1 1.4
2018-Jul-10 21:30N 31°32' W 119°28'1 1.6
2018-Jul-10 21:00N 31°32' W 119°28'1 1.6
2018-Jul-10 20:26N 31°33' W 119°28'1 1.6
2018-Jul-10 20:00N 31°34' W 119°28'1 1.6
2018-Jul-10 19:30N 31°35' W 119°28'1 1.6
2018-Jul-10 19:00N 31°36' W 119°29'1 1.2
2018-Jul-10 18:30N 31°36' W 119°29'0 0.9
2018-Jul-10 18:00N 31°36' W 119°29'0 0.9
2018-Jul-10 17:30N 31°37' W 119°30'0 0.7
2018-Jul-10 17:00N 31°37' W 119°30'0 0.8
2018-Jul-10 16:30N 31°38' W 119°30'0 0.9
2018-Jul-10 15:57N 31°38' W 119°30'0 0.9
2018-Jul-10 15:30N 31°38' W 119°30'0 0.9
2018-Jul-10 15:00N 31°39' W 119°30'0 0.8
2018-Jul-10 14:30N 31°39' W 119°31'0 0.7
2018-Jul-10 14:00N 31°39' W 119°31'0 0.6
2018-Jul-10 13:30N 31°40' W 119°31'0 0.7
2018-Jul-10 13:00N 31°40' W 119°31'0 0.8
2018-Jul-10 12:30N 31°40' W 119°31'0 0.8
2018-Jul-10 12:00N 31°41' W 119°31'0 1.0
2018-Jul-10 11:30N 31°41' W 119°31'0 1.0
2018-Jul-10 11:00N 31°42' W 119°31'1 1.0
2018-Jul-10 10:30N 31°42' W 119°31'1 1.1
2018-Jul-10 09:59N 31°43' W 119°32'1 1.5
2018-Jul-10 09:30N 31°44' W 119°32'1 1.7
2018-Jul-10 09:01N 31°44' W 119°32'1 1.7
2018-Jul-10 08:30N 31°45' W 119°32'1 1.6
2018-Jul-10 08:00N 31°46' W 119°32'1 1.5
2018-Jul-10 07:30N 31°47' W 119°32'1 1.8
2018-Jul-10 07:00N 31°48' W 119°32'1 1.9
2018-Jul-10 06:30N 31°49' W 119°32'1 1.9
2018-Jul-10 06:00N 31°50' W 119°31'1 1.9
2018-Jul-10 05:30N 31°50' W 119°31'1 1.9
2018-Jul-10 05:00N 31°51' W 119°31'1 2.0
2018-Jul-10 04:30N 31°52' W 119°31'1 1.8
2018-Jul-10 04:00N 31°53' W 119°31'1 1.8
2018-Jul-10 03:30N 31°54' W 119°31'1 2.1
2018-Jul-10 03:00N 31°55' W 119°31'1 2.1
2018-Jul-10 02:30N 31°56' W 119°31'1 1.9
2018-Jul-10 01:59N 31°57' W 119°31'2 1.9
2018-Jul-10 01:09N 31°59' W 119°30'0 2.0
2018-Jul-10 01:00N 31°59' W 119°30'1 2.0
2018-Jul-10 00:28N 32°00' W 119°30'1 2.1
2018-Jul-10 00:00N 32°01' W 119°30'1 2.1
2018-Jul-09 23:30N 32°02' W 119°30'1 2.1
2018-Jul-09 23:00N 32°03' W 119°30'1 2.2
2018-Jul-09 22:30N 32°04' W 119°30'1 2.2
2018-Jul-09 22:00N 32°06' W 119°30'1 2.2
2018-Jul-09 21:30N 32°07' W 119°30'1 2.0
2018-Jul-09 21:01N 32°08' W 119°30'1 2.0
2018-Jul-09 20:30N 32°09' W 119°31'1 1.9
2018-Jul-09 20:00N 32°10' W 119°31'1 2.1
2018-Jul-09 19:30N 32°11' W 119°31'3 5.2
2018-Jul-09 19:00N 32°12' W 119°33'612.3
2018-Jul-09 18:30N 32°13' W 119°40'613.0
2018-Jul-09 18:00N 32°15' W 119°48'612.8
2018-Jul-09 17:30N 32°16' W 119°55'612.6
2018-Jul-09 17:00N 32°17' W 120°03'612.5
2018-Jul-09 16:30N 32°19' W 120°10'612.5
2018-Jul-09 16:00N 32°20' W 120°17'713.2
2018-Jul-09 15:30N 32°22' W 120°25'713.6
2018-Jul-09 15:00N 32°23' W 120°32'612.7
2018-Jul-09 14:30N 32°25' W 120°40'612.3
2018-Jul-09 14:00N 32°26' W 120°47'612.7
2018-Jul-09 13:31N 32°28' W 120°54'612.6
2018-Jul-09 13:00N 32°29' W 121°02'612.7
2018-Jul-09 12:30N 32°30' W 121°09'613.0
2018-Jul-09 12:00N 32°32' W 121°16'612.9
2018-Jul-09 11:30N 32°33' W 121°24'612.6
2018-Jul-09 11:00N 32°35' W 121°31'612.3
2018-Jul-09 10:30N 32°39' W 121°36'612.6
2018-Jul-09 10:00N 32°45' W 121°39'612.4
2018-Jul-09 09:30N 32°50' W 121°43'612.5
2018-Jul-09 09:00N 32°56' W 121°47'612.3
2018-Jul-09 08:30N 33°01' W 121°51'612.5
2018-Jul-09 08:00N 33°06' W 121°55'612.4
2018-Jul-09 07:30N 33°11' W 121°59'612.3
2018-Jul-09 07:00N 33°17' W 122°03'612.5
2018-Jul-09 06:30N 33°22' W 122°06'612.8
2018-Jul-09 06:00N 33°27' W 122°10'712.8
2018-Jul-09 05:29N 33°33' W 122°15'612.6
2018-Jul-09 05:00N 33°38' W 122°18'612.7
2018-Jul-09 04:30N 33°44' W 122°22'612.8
2018-Jul-09 04:00N 33°49' W 122°26'713.0
2018-Jul-09 03:30N 33°55' W 122°30'612.7
2018-Jul-09 03:00N 34°00' W 122°34'612.6
2018-Jul-09 02:30N 34°06' W 122°38'612.7
2018-Jul-09 02:00N 34°11' W 122°42'612.7
2018-Jul-09 01:30N 34°16' W 122°46'612.9
2018-Jul-09 01:00N 34°22' W 122°50'712.9
2018-Jul-09 00:30N 34°28' W 122°54'612.9
2018-Jul-09 00:00N 34°33' W 122°58'612.5
2018-Jul-08 23:30N 34°39' W 123°00'713.0
2018-Jul-08 23:00N 34°46' W 123°01'713.1
2018-Jul-08 22:30N 34°52' W 123°02'  

Dump ship's entire track history